createdAt,value
2022-12-08T00:12:40.649Z,2.96
2022-12-08T00:32:40.491Z,2.89
2022-12-08T00:52:40.523Z,2.95
2022-12-08T01:12:40.528Z,2.97
2022-12-08T01:32:40.527Z,2.97
2022-12-08T01:52:40.537Z,2.67
2022-12-08T02:12:40.626Z,2.75
2022-12-08T02:32:40.576Z,2.57
2022-12-08T02:52:40.597Z,2.23
2022-12-08T03:12:40.614Z,1.97
2022-12-08T03:32:40.597Z,1.75
2022-12-08T03:52:40.514Z,1.79
2022-12-08T04:12:40.539Z,1.86
2022-12-08T04:32:40.551Z,2.03
2022-12-08T04:52:40.568Z,2.20
2022-12-08T05:12:40.599Z,2.19
2022-12-08T05:32:40.598Z,2.07
2022-12-08T05:52:40.614Z,2.03
2022-12-08T06:12:40.636Z,2.26
2022-12-08T06:32:40.545Z,2.19
2022-12-08T06:52:40.754Z,2.13
2022-12-08T07:12:40.572Z,2.08
2022-12-08T07:32:40.629Z,2.12
2022-12-08T07:52:40.607Z,2.24
2022-12-08T08:12:40.620Z,2.59
2022-12-08T08:32:40.673Z,2.85
2022-12-08T08:52:40.711Z,3.19
2022-12-08T09:12:40.590Z,3.19
2022-12-08T09:32:40.582Z,3.21
2022-12-08T09:52:40.733Z,3.54
2022-12-08T10:12:40.618Z,3.80
2022-12-08T10:32:40.627Z,4.04
2022-12-08T10:52:40.713Z,4.19
2022-12-08T11:12:40.563Z,4.36
2022-12-08T11:32:40.588Z,4.46
2022-12-08T11:52:40.597Z,4.63
2022-12-08T12:12:40.621Z,4.65
2022-12-08T12:32:40.636Z,4.67
2022-12-08T12:52:40.641Z,4.81
2022-12-08T13:32:40.585Z,4.78
2022-12-08T13:52:40.599Z,4.55
2022-12-08T14:12:40.734Z,4.44
2022-12-08T14:32:40.567Z,4.16
2022-12-08T14:52:40.544Z,3.82
2022-12-08T15:12:40.554Z,3.39
2022-12-08T15:32:40.640Z,3.20
2022-12-08T15:52:40.705Z,3.04
2022-12-08T16:12:40.671Z,2.95
2022-12-08T16:32:40.628Z,2.75
2022-12-08T16:52:40.571Z,2.58
2022-12-08T17:12:40.571Z,1.69
2022-12-08T17:32:40.590Z,1.12
2022-12-08T17:52:40.647Z,0.94
2022-12-08T18:12:40.609Z,0.85
2022-12-08T18:32:40.624Z,1.05
2022-12-08T18:52:40.644Z,1.14
2022-12-08T19:12:40.774Z,1.13
2022-12-08T19:32:40.772Z,1.02
2022-12-08T19:52:40.585Z,0.58
2022-12-08T20:12:40.606Z,0.47
2022-12-08T20:32:40.621Z,0.15
2022-12-08T20:52:40.653Z,-0.04
2022-12-08T21:12:40.671Z,-0.12
2022-12-08T21:32:40.689Z,-0.03
2022-12-08T21:52:40.687Z,-0.07
2022-12-08T22:12:40.709Z,-0.04
2022-12-08T22:32:40.765Z,0.13
2022-12-08T22:52:40.739Z,0.10
2022-12-08T23:12:40.752Z,0.25
2022-12-08T23:32:40.765Z,0.17
2022-12-08T23:52:40.784Z,0.42
